sensor_id;sensor_type;location;lat;lon;timestamp;temperature;humidity
69679;DHT22;56915;52.046;4.854;2023-04-24T00:01:33;9.20;99.90
69679;DHT22;56915;52.046;4.854;2023-04-24T00:04:00;9.20;99.90
69679;DHT22;56915;52.046;4.854;2023-04-24T00:06:28;9.20;99.90
69679;DHT22;56915;52.046;4.854;2023-04-24T00:09:00;9.20;99.90
69679;DHT22;56915;52.046;4.854;2023-04-24T00:11:27;9.20;99.90
69679;DHT22;56915;52.046;4.854;2023-04-24T00:13:54;9.20;99.90
69679;DHT22;56915;52.046;4.854;2023-04-24T00:16:21;9.20;99.90
69679;DHT22;56915;52.046;4.854;2023-04-24T00:18:49;9.20;99.90
69679;DHT22;56915;52.046;4.854;2023-04-24T00:21:15;9.20;99.90
69679;DHT22;56915;52.046;4.854;2023-04-24T00:23:45;9.20;99.90
69679;DHT22;56915;52.046;4.854;2023-04-24T00:26:12;9.30;99.90
69679;DHT22;56915;52.046;4.854;2023-04-24T00:28:39;9.30;99.90
69679;DHT22;56915;52.046;4.854;2023-04-24T00:31:06;9.30;99.90
69679;DHT22;56915;52.046;4.854;2023-04-24T00:33:33;9.20;99.90
69679;DHT22;56915;52.046;4.854;2023-04-24T00:35:59;9.30;99.90
69679;DHT22;56915;52.046;4.854;2023-04-24T00:38:26;9.30;99.90
69679;DHT22;56915;52.046;4.854;2023-04-24T00:40:53;9.30;99.90
69679;DHT22;56915;52.046;4.854;2023-04-24T00:43:20;9.30;99.90
69679;DHT22;56915;52.046;4.854;2023-04-24T00:45:47;9.30;99.90
69679;DHT22;56915;52.046;4.854;2023-04-24T00:48:14;9.30;99.90
69679;DHT22;56915;52.046;4.854;2023-04-24T00:50:42;9.30;99.90
69679;DHT22;56915;52.046;4.854;2023-04-24T00:53:11;9.30;99.90
69679;DHT22;56915;52.046;4.854;2023-04-24T00:55:40;9.40;99.90
69679;DHT22;56915;52.046;4.854;2023-04-24T00:58:08;9.40;99.90
69679;DHT22;56915;52.046;4.854;2023-04-24T01:00:35;9.40;99.90
69679;DHT22;56915;52.046;4.854;2023-04-24T01:03:04;9.50;99.90
69679;DHT22;56915;52.046;4.854;2023-04-24T01:05:32;9.50;99.90
69679;DHT22;56915;52.046;4.854;2023-04-24T01:08:01;9.50;99.90
69679;DHT22;56915;52.046;4.854;2023-04-24T01:10:29;9.50;99.90
69679;DHT22;56915;52.046;4.854;2023-04-24T01:12:57;9.40;99.90
69679;DHT22;56915;52.046;4.854;2023-04-24T01:15:24;9.40;99.90
69679;DHT22;56915;52.046;4.854;2023-04-24T01:17:51;9.40;99.90
69679;DHT22;56915;52.046;4.854;2023-04-24T01:20:18;9.40;99.90
69679;DHT22;56915;52.046;4.854;2023-04-24T01:22:47;9.30;99.90
69679;DHT22;56915;52.046;4.854;2023-04-24T01:25:14;9.40;99.90
69679;DHT22;56915;52.046;4.854;2023-04-24T01:27:41;9.30;99.90
69679;DHT22;56915;52.046;4.854;2023-04-24T01:30:08;9.40;99.90
69679;DHT22;56915;52.046;4.854;2023-04-24T01:32:36;9.40;99.90
69679;DHT22;56915;52.046;4.854;2023-04-24T01:35:05;9.40;99.90
69679;DHT22;56915;52.046;4.854;2023-04-24T01:37:32;9.40;99.90
69679;DHT22;56915;52.046;4.854;2023-04-24T01:39:59;9.40;99.90
69679;DHT22;56915;52.046;4.854;2023-04-24T01:42:26;9.40;99.90
69679;DHT22;56915;52.046;4.854;2023-04-24T01:44:53;9.40;99.90
69679;DHT22;56915;52.046;4.854;2023-04-24T01:47:21;9.40;99.90
69679;DHT22;56915;52.046;4.854;2023-04-24T01:49:48;9.40;99.90
69679;DHT22;56915;52.046;4.854;2023-04-24T01:52:16;9.30;99.90
69679;DHT22;56915;52.046;4.854;2023-04-24T01:54:44;9.30;99.90
69679;DHT22;56915;52.046;4.854;2023-04-24T01:57:11;9.30;99.90
69679;DHT22;56915;52.046;4.854;2023-04-24T01:59:38;9.30;99.90
69679;DHT22;56915;52.046;4.854;2023-04-24T02:02:04;9.30;99.90
69679;DHT22;56915;52.046;4.854;2023-04-24T02:04:31;9.30;99.90
69679;DHT22;56915;52.046;4.854;2023-04-24T02:06:58;9.30;99.90
69679;DHT22;56915;52.046;4.854;2023-04-24T02:09:25;9.20;99.90
69679;DHT22;56915;52.046;4.854;2023-04-24T02:11:52;9.20;99.90
69679;DHT22;56915;52.046;4.854;2023-04-24T02:14:18;9.20;99.90
69679;DHT22;56915;52.046;4.854;2023-04-24T02:16:45;9.20;99.90
69679;DHT22;56915;52.046;4.854;2023-04-24T02:19:12;9.20;99.90
69679;DHT22;56915;52.046;4.854;2023-04-24T02:21:39;9.20;99.90
69679;DHT22;56915;52.046;4.854;2023-04-24T02:24:06;9.20;99.90
69679;DHT22;56915;52.046;4.854;2023-04-24T02:26:33;9.20;99.90
69679;DHT22;56915;52.046;4.854;2023-04-24T02:28:59;9.20;99.90
69679;DHT22;56915;52.046;4.854;2023-04-24T02:31:26;9.20;99.90
69679;DHT22;56915;52.046;4.854;2023-04-24T02:33:53;9.20;99.90
69679;DHT22;56915;52.046;4.854;2023-04-24T02:36:22;9.20;99.90
69679;DHT22;56915;52.046;4.854;2023-04-24T02:38:49;9.20;99.90
69679;DHT22;56915;52.046;4.854;2023-04-24T02:41:16;9.10;99.90
69679;DHT22;56915;52.046;4.854;2023-04-24T02:43:43;9.10;99.90
69679;DHT22;56915;52.046;4.854;2023-04-24T02:46:09;9.10;99.90
69679;DHT22;56915;52.046;4.854;2023-04-24T02:48:36;9.10;99.90
69679;DHT22;56915;52.046;4.854;2023-04-24T02:51:04;9.20;99.90
69679;DHT22;56915;52.046;4.854;2023-04-24T02:53:30;9.20;99.90
69679;DHT22;56915;52.046;4.854;2023-04-24T02:56:00;9.20;99.90
69679;DHT22;56915;52.046;4.854;2023-04-24T02:58:29;9.20;99.90
69679;DHT22;56915;52.046;4.854;2023-04-24T03:00:56;9.20;99.90
69679;DHT22;56915;52.046;4.854;2023-04-24T03:03:23;9.20;99.90
69679;DHT22;56915;52.046;4.854;2023-04-24T03:05:51;9.20;99.90
69679;DHT22;56915;52.046;4.854;2023-04-24T03:08:29;9.20;99.90
69679;DHT22;56915;52.046;4.854;2023-04-24T03:10:56;9.20;99.90
69679;DHT22;56915;52.046;4.854;2023-04-24T03:13:23;9.20;99.90
69679;DHT22;56915;52.046;4.854;2023-04-24T03:15:49;9.20;99.90
69679;DHT22;56915;52.046;4.854;2023-04-24T03:18:16;9.20;99.90
69679;DHT22;56915;52.046;4.854;2023-04-24T03:20:45;9.20;99.90
69679;DHT22;56915;52.046;4.854;2023-04-24T03:23:13;9.30;99.90
69679;DHT22;56915;52.046;4.854;2023-04-24T03:25:40;9.30;99.90
69679;DHT22;56915;52.046;4.854;2023-04-24T03:28:09;9.30;99.90
69679;DHT22;56915;52.046;4.854;2023-04-24T03:30:35;9.30;99.90
69679;DHT22;56915;52.046;4.854;2023-04-24T03:33:02;9.20;99.90
69679;DHT22;56915;52.046;4.854;2023-04-24T03:35:29;9.10;99.90
69679;DHT22;56915;52.046;4.854;2023-04-24T03:37:56;9.10;99.90
69679;DHT22;56915;52.046;4.854;2023-04-24T03:40:23;9.10;99.90
69679;DHT22;56915;52.046;4.854;2023-04-24T03:42:50;9.00;99.90
69679;DHT22;56915;52.046;4.854;2023-04-24T03:45:17;9.00;99.90
69679;DHT22;56915;52.046;4.854;2023-04-24T03:47:44;9.00;99.90
69679;DHT22;56915;52.046;4.854;2023-04-24T03:50:11;9.00;99.90
69679;DHT22;56915;52.046;4.854;2023-04-24T03:52:38;8.90;99.90
69679;DHT22;56915;52.046;4.854;2023-04-24T03:55:06;8.80;99.90
69679;DHT22;56915;52.046;4.854;2023-04-24T03:57:33;8.80;99.90
69679;DHT22;56915;52.046;4.854;2023-04-24T03:59:59;8.80;99.90
69679;DHT22;56915;52.046;4.854;2023-04-24T04:02:26;8.80;99.90
69679;DHT22;56915;52.046;4.854;2023-04-24T04:04:53;8.70;99.90
69679;DHT22;56915;52.046;4.854;2023-04-24T04:07:21;8.70;99.90
69679;DHT22;56915;52.046;4.854;2023-04-24T04:09:47;8.60;99.90
69679;DHT22;56915;52.046;4.854;2023-04-24T04:12:14;8.60;99.90
69679;DHT22;56915;52.046;4.854;2023-04-24T04:14:41;8.60;99.90
69679;DHT22;56915;52.046;4.854;2023-04-24T04:17:07;8.60;99.90
69679;DHT22;56915;52.046;4.854;2023-04-24T04:19:34;8.60;99.90
69679;DHT22;56915;52.046;4.854;2023-04-24T04:22:01;8.60;99.90
69679;DHT22;56915;52.046;4.854;2023-04-24T04:24:28;8.70;99.90
69679;DHT22;56915;52.046;4.854;2023-04-24T04:26:55;8.70;99.90
69679;DHT22;56915;52.046;4.854;2023-04-24T04:29:24;8.80;99.90
69679;DHT22;56915;52.046;4.854;2023-04-24T04:31:52;8.70;99.90
69679;DHT22;56915;52.046;4.854;2023-04-24T04:34:19;8.70;99.90
69679;DHT22;56915;52.046;4.854;2023-04-24T04:36:46;8.70;99.90
69679;DHT22;56915;52.046;4.854;2023-04-24T04:39:13;8.70;99.90
69679;DHT22;56915;52.046;4.854;2023-04-24T04:41:41;8.70;99.90
69679;DHT22;56915;52.046;4.854;2023-04-24T04:44:09;8.70;99.90
69679;DHT22;56915;52.046;4.854;2023-04-24T04:46:36;8.70;99.90
69679;DHT22;56915;52.046;4.854;2023-04-24T04:49:04;8.70;99.90
69679;DHT22;56915;52.046;4.854;2023-04-24T04:51:31;8.70;99.90
69679;DHT22;56915;52.046;4.854;2023-04-24T04:53:58;8.70;99.90
69679;DHT22;56915;52.046;4.854;2023-04-24T04:56:25;8.70;99.90
69679;DHT22;56915;52.046;4.854;2023-04-24T04:58:52;8.70;99.90
69679;DHT22;56915;52.046;4.854;2023-04-24T05:01:18;8.70;99.90
69679;DHT22;56915;52.046;4.854;2023-04-24T05:03:45;8.70;99.90
69679;DHT22;56915;52.046;4.854;2023-04-24T05:06:13;8.70;99.90
69679;DHT22;56915;52.046;4.854;2023-04-24T05:08:39;8.70;99.90
69679;DHT22;56915;52.046;4.854;2023-04-24T05:11:06;8.70;99.90
69679;DHT22;56915;52.046;4.854;2023-04-24T05:13:33;8.70;99.90
69679;DHT22;56915;52.046;4.854;2023-04-24T05:16:06;8.70;99.90
69679;DHT22;56915;52.046;4.854;2023-04-24T05:18:33;8.70;99.90
69679;DHT22;56915;52.046;4.854;2023-04-24T05:21:00;8.70;99.90
69679;DHT22;56915;52.046;4.854;2023-04-24T05:23:27;8.60;99.90
69679;DHT22;56915;52.046;4.854;2023-04-24T05:27:20;8.60;99.90
69679;DHT22;56915;52.046;4.854;2023-04-24T05:30:06;8.70;99.90
69679;DHT22;56915;52.046;4.854;2023-04-24T05:33:02;8.70;99.90
69679;DHT22;56915;52.046;4.854;2023-04-24T05:35:55;8.80;99.90
69679;DHT22;56915;52.046;4.854;2023-04-24T05:42:38;8.90;99.90
69679;DHT22;56915;52.046;4.854;2023-04-24T05:45:10;8.80;99.90
69679;DHT22;56915;52.046;4.854;2023-04-24T05:48:12;8.80;99.90
69679;DHT22;56915;52.046;4.854;2023-04-24T05:51:00;8.70;99.90
69679;DHT22;56915;52.046;4.854;2023-04-24T05:53:30;8.60;99.90
69679;DHT22;56915;52.046;4.854;2023-04-24T05:55:57;8.50;99.90
69679;DHT22;56915;52.046;4.854;2023-04-24T05:58:26;8.50;99.90
69679;DHT22;56915;52.046;4.854;2023-04-24T06:00:54;8.40;99.90
69679;DHT22;56915;52.046;4.854;2023-04-24T06:03:21;8.40;99.90
69679;DHT22;56915;52.046;4.854;2023-04-24T06:05:50;8.40;99.90
69679;DHT22;56915;52.046;4.854;2023-04-24T06:08:17;8.40;99.90
69679;DHT22;56915;52.046;4.854;2023-04-24T06:10:44;8.40;99.90
69679;DHT22;56915;52.046;4.854;2023-04-24T06:13:11;8.40;99.90
69679;DHT22;56915;52.046;4.854;2023-04-24T06:15:38;8.30;99.90
69679;DHT22;56915;52.046;4.854;2023-04-24T06:18:05;8.30;99.90
69679;DHT22;56915;52.046;4.854;2023-04-24T06:20:32;8.30;99.90
69679;DHT22;56915;52.046;4.854;2023-04-24T06:22:59;8.30;99.90
69679;DHT22;56915;52.046;4.854;2023-04-24T06:25:26;8.20;99.90
69679;DHT22;56915;52.046;4.854;2023-04-24T06:27:54;8.20;99.90
69679;DHT22;56915;52.046;4.854;2023-04-24T06:30:24;8.30;99.90
69679;DHT22;56915;52.046;4.854;2023-04-24T06:32:52;8.20;99.90
69679;DHT22;56915;52.046;4.854;2023-04-24T06:35:35;8.30;99.90
69679;DHT22;56915;52.046;4.854;2023-04-24T06:38:08;8.30;99.90
69679;DHT22;56915;52.046;4.854;2023-04-24T06:40:35;8.30;99.90
69679;DHT22;56915;52.046;4.854;2023-04-24T06:43:05;8.30;99.90
69679;DHT22;56915;52.046;4.854;2023-04-24T06:45:38;8.20;99.90
69679;DHT22;56915;52.046;4.854;2023-04-24T06:48:09;8.30;99.90
69679;DHT22;56915;52.046;4.854;2023-04-24T06:51:13;8.20;99.90
69679;DHT22;56915;52.046;4.854;2023-04-24T06:53:50;8.20;99.90
69679;DHT22;56915;52.046;4.854;2023-04-24T06:56:32;8.20;99.90
69679;DHT22;56915;52.046;4.854;2023-04-24T07:02:30;8.20;99.90
69679;DHT22;56915;52.046;4.854;2023-04-24T07:04:57;8.30;99.90
69679;DHT22;56915;52.046;4.854;2023-04-24T07:07:33;8.30;99.90
69679;DHT22;56915;52.046;4.854;2023-04-24T07:10:13;8.30;99.90
69679;DHT22;56915;52.046;4.854;2023-04-24T07:13:00;8.30;99.90
69679;DHT22;56915;52.046;4.854;2023-04-24T07:15:37;8.30;99.90
69679;DHT22;56915;52.046;4.854;2023-04-24T07:21:55;8.30;99.90
69679;DHT22;56915;52.046;4.854;2023-04-24T07:25:18;8.40;99.90
69679;DHT22;56915;52.046;4.854;2023-04-24T07:31:13;8.40;99.90
69679;DHT22;56915;52.046;4.854;2023-04-24T07:34:20;8.30;99.90
69679;DHT22;56915;52.046;4.854;2023-04-24T07:59:56;8.60;99.90
69679;DHT22;56915;52.046;4.854;2023-04-24T08:05:47;8.90;99.90
69679;DHT22;56915;52.046;4.854;2023-04-24T08:09:13;8.90;99.90
69679;DHT22;56915;52.046;4.854;2023-04-24T08:13:00;9.00;99.90
69679;DHT22;56915;52.046;4.854;2023-04-24T08:16:00;9.10;99.90
69679;DHT22;56915;52.046;4.854;2023-04-24T08:18:32;9.20;99.90
69679;DHT22;56915;52.046;4.854;2023-04-24T08:21:52;9.20;99.90
69679;DHT22;56915;52.046;4.854;2023-04-24T08:24:42;9.30;99.90
69679;DHT22;56915;52.046;4.854;2023-04-24T08:27:10;9.40;99.90
69679;DHT22;56915;52.046;4.854;2023-04-24T08:30:01;9.40;99.90
69679;DHT22;56915;52.046;4.854;2023-04-24T08:32:54;9.40;99.90
69679;DHT22;56915;52.046;4.854;2023-04-24T08:35:23;9.50;99.90
69679;DHT22;56915;52.046;4.854;2023-04-24T08:37:55;9.60;99.90
69679;DHT22;56915;52.046;4.854;2023-04-24T08:40:27;9.70;99.00
69679;DHT22;56915;52.046;4.854;2023-04-24T08:43:00;9.70;96.70
69679;DHT22;56915;52.046;4.854;2023-04-24T08:45:30;9.70;95.50
69679;DHT22;56915;52.046;4.854;2023-04-24T08:48:00;9.80;98.10
69679;DHT22;56915;52.046;4.854;2023-04-24T08:50:27;10.00;96.40
69679;DHT22;56915;52.046;4.854;2023-04-24T08:52:53;10.10;94.10
69679;DHT22;56915;52.046;4.854;2023-04-24T08:55:20;10.30;96.20
69679;DHT22;56915;52.046;4.854;2023-04-24T08:57:52;10.60;96.70
69679;DHT22;56915;52.046;4.854;2023-04-24T09:00:20;10.80;93.40
69679;DHT22;56915;52.046;4.854;2023-04-24T09:02:49;11.00;87.80
69679;DHT22;56915;52.046;4.854;2023-04-24T09:05:17;11.00;86.80
69679;DHT22;56915;52.046;4.854;2023-04-24T09:07:48;11.00;81.10
69679;DHT22;56915;52.046;4.854;2023-04-24T09:10:16;10.90;81.30
69679;DHT22;56915;52.046;4.854;2023-04-24T09:12:44;10.70;81.20
69679;DHT22;56915;52.046;4.854;2023-04-24T09:15:11;10.60;81.60
69679;DHT22;56915;52.046;4.854;2023-04-24T09:17:38;10.60;84.90
69679;DHT22;56915;52.046;4.854;2023-04-24T09:20:06;10.50;83.40
69679;DHT22;56915;52.046;4.854;2023-04-24T09:22:33;10.50;84.20
69679;DHT22;56915;52.046;4.854;2023-04-24T09:25:06;10.50;81.60
69679;DHT22;56915;52.046;4.854;2023-04-24T09:27:34;10.70;85.10
69679;DHT22;56915;52.046;4.854;2023-04-24T09:30:01;10.80;77.50
69679;DHT22;56915;52.046;4.854;2023-04-24T09:32:28;10.80;73.60
69679;DHT22;56915;52.046;4.854;2023-04-24T09:35:13;10.80;74.10
69679;DHT22;56915;52.046;4.854;2023-04-24T09:37:43;10.70;70.90
69679;DHT22;56915;52.046;4.854;2023-04-24T09:40:21;10.40;71.30
69679;DHT22;56915;52.046;4.854;2023-04-24T09:42:53;10.30;73.70
69679;DHT22;56915;52.046;4.854;2023-04-24T09:45:20;10.20;75.90
69679;DHT22;56915;52.046;4.854;2023-04-24T09:47:52;10.30;76.00
69679;DHT22;56915;52.046;4.854;2023-04-24T09:50:22;10.50;76.50
69679;DHT22;56915;52.046;4.854;2023-04-24T09:53:01;10.60;70.90
69679;DHT22;56915;52.046;4.854;2023-04-24T09:55:28;10.70;67.80
69679;DHT22;56915;52.046;4.854;2023-04-24T09:57:57;10.80;69.60
69679;DHT22;56915;52.046;4.854;2023-04-24T10:00:29;10.90;67.10
69679;DHT22;56915;52.046;4.854;2023-04-24T10:03:02;11.00;66.80
69679;DHT22;56915;52.046;4.854;2023-04-24T10:05:31;11.20;66.90
69679;DHT22;56915;52.046;4.854;2023-04-24T10:08:03;11.30;66.70
69679;DHT22;56915;52.046;4.854;2023-04-24T10:10:31;11.20;64.90
69679;DHT22;56915;52.046;4.854;2023-04-24T10:12:59;10.90;64.20
69679;DHT22;56915;52.046;4.854;2023-04-24T10:15:27;10.50;67.00
69679;DHT22;56915;52.046;4.854;2023-04-24T10:17:54;10.30;71.40
69679;DHT22;56915;52.046;4.854;2023-04-24T10:20:28;10.40;74.10
69679;DHT22;56915;52.046;4.854;2023-04-24T10:22:59;10.50;73.50
69679;DHT22;56915;52.046;4.854;2023-04-24T10:25:28;10.70;76.80
69679;DHT22;56915;52.046;4.854;2023-04-24T10:27:56;11.00;74.10
69679;DHT22;56915;52.046;4.854;2023-04-24T10:30:28;11.30;72.10
69679;DHT22;56915;52.046;4.854;2023-04-24T10:32:55;11.50;73.10
69679;DHT22;56915;52.046;4.854;2023-04-24T10:35:23;11.70;73.30
69679;DHT22;56915;52.046;4.854;2023-04-24T10:37:59;11.80;69.30
69679;DHT22;56915;52.046;4.854;2023-04-24T10:40:35;11.90;69.20
69679;DHT22;56915;52.046;4.854;2023-04-24T10:43:03;11.90;68.80
69679;DHT22;56915;52.046;4.854;2023-04-24T10:45:34;12.00;68.40
69679;DHT22;56915;52.046;4.854;2023-04-24T10:48:06;12.00;65.40
69679;DHT22;56915;52.046;4.854;2023-04-24T10:50:46;11.90;64.80
69679;DHT22;56915;52.046;4.854;2023-04-24T10:53:19;11.90;64.50
69679;DHT22;56915;52.046;4.854;2023-04-24T10:55:51;12.10;66.50
69679;DHT22;56915;52.046;4.854;2023-04-24T10:58:22;12.20;65.30
69679;DHT22;56915;52.046;4.854;2023-04-24T11:00:58;12.40;64.40
69679;DHT22;56915;52.046;4.854;2023-04-24T11:03:30;12.60;61.40
69679;DHT22;56915;52.046;4.854;2023-04-24T11:06:03;12.60;60.40
69679;DHT22;56915;52.046;4.854;2023-04-24T11:08:42;12.60;60.20
69679;DHT22;56915;52.046;4.854;2023-04-24T11:11:16;12.60;60.70
69679;DHT22;56915;52.046;4.854;2023-04-24T11:22:04;10.60;67.50
69679;DHT22;56915;52.046;4.854;2023-04-24T11:24:49;10.30;74.60
69679;DHT22;56915;52.046;4.854;2023-04-24T11:27:21;10.10;77.20
69679;DHT22;56915;52.046;4.854;2023-04-24T11:37:34;9.60;83.10
69679;DHT22;56915;52.046;4.854;2023-04-24T11:40:01;9.00;89.20
69679;DHT22;56915;52.046;4.854;2023-04-24T11:42:37;8.60;93.80
69679;DHT22;56915;52.046;4.854;2023-04-24T11:45:08;8.50;96.80
69679;DHT22;56915;52.046;4.854;2023-04-24T11:47:36;8.60;98.10
69679;DHT22;56915;52.046;4.854;2023-04-24T11:50:05;8.80;95.90
69679;DHT22;56915;52.046;4.854;2023-04-24T11:52:33;9.10;92.20
69679;DHT22;56915;52.046;4.854;2023-04-24T11:55:03;9.50;92.80
69679;DHT22;56915;52.046;4.854;2023-04-24T11:57:30;9.80;91.20
69679;DHT22;56915;52.046;4.854;2023-04-24T12:00:02;9.90;90.10
69679;DHT22;56915;52.046;4.854;2023-04-24T12:02:31;10.00;90.20
69679;DHT22;56915;52.046;4.854;2023-04-24T12:04:58;10.00;91.80
69679;DHT22;56915;52.046;4.854;2023-04-24T12:07:25;10.00;89.80
69679;DHT22;56915;52.046;4.854;2023-04-24T12:09:57;10.10;90.70
69679;DHT22;56915;52.046;4.854;2023-04-24T12:12:27;10.20;88.30
69679;DHT22;56915;52.046;4.854;2023-04-24T12:14:56;10.30;87.80
69679;DHT22;56915;52.046;4.854;2023-04-24T12:17:29;10.20;90.60
69679;DHT22;56915;52.046;4.854;2023-04-24T12:20:05;10.20;82.70
69679;DHT22;56915;52.046;4.854;2023-04-24T12:22:55;10.20;85.70
69679;DHT22;56915;52.046;4.854;2023-04-24T12:25:28;10.30;84.60
69679;DHT22;56915;52.046;4.854;2023-04-24T12:28:10;10.40;80.70
69679;DHT22;56915;52.046;4.854;2023-04-24T12:30:47;10.30;78.80
69679;DHT22;56915;52.046;4.854;2023-04-24T12:33:19;10.10;83.30
69679;DHT22;56915;52.046;4.854;2023-04-24T12:35:51;9.90;86.90
69679;DHT22;56915;52.046;4.854;2023-04-24T12:38:22;9.80;90.70
69679;DHT22;56915;52.046;4.854;2023-04-24T12:41:04;10.00;91.60
69679;DHT22;56915;52.046;4.854;2023-04-24T12:43:31;10.30;90.90
69679;DHT22;56915;52.046;4.854;2023-04-24T12:45:58;10.40;88.10
69679;DHT22;56915;52.046;4.854;2023-04-24T12:48:29;10.50;85.20
69679;DHT22;56915;52.046;4.854;2023-04-24T12:50:58;10.60;90.50
69679;DHT22;56915;52.046;4.854;2023-04-24T12:53:28;11.00;84.40
69679;DHT22;56915;52.046;4.854;2023-04-24T12:55:58;11.30;73.70
69679;DHT22;56915;52.046;4.854;2023-04-24T12:58:25;11.50;68.00
69679;DHT22;56915;52.046;4.854;2023-04-24T13:00:52;11.70;63.50
69679;DHT22;56915;52.046;4.854;2023-04-24T13:03:19;11.70;60.30
69679;DHT22;56915;52.046;4.854;2023-04-24T13:05:46;11.60;59.60
69679;DHT22;56915;52.046;4.854;2023-04-24T13:08:13;11.60;56.80
69679;DHT22;56915;52.046;4.854;2023-04-24T13:10:43;11.20;56.30
69679;DHT22;56915;52.046;4.854;2023-04-24T13:13:10;10.80;60.30
69679;DHT22;56915;52.046;4.854;2023-04-24T13:15:37;10.90;63.90
69679;DHT22;56915;52.046;4.854;2023-04-24T13:18:04;11.20;62.90
69679;DHT22;56915;52.046;4.854;2023-04-24T13:20:31;11.40;59.60
69679;DHT22;56915;52.046;4.854;2023-04-24T13:22:58;11.40;60.30
69679;DHT22;56915;52.046;4.854;2023-04-24T13:25:25;11.60;61.00
69679;DHT22;56915;52.046;4.854;2023-04-24T13:27:53;11.80;60.30
69679;DHT22;56915;52.046;4.854;2023-04-24T13:30:20;12.00;58.10
69679;DHT22;56915;52.046;4.854;2023-04-24T13:32:47;12.30;57.30
69679;DHT22;56915;52.046;4.854;2023-04-24T13:35:13;12.60;54.50
69679;DHT22;56915;52.046;4.854;2023-04-24T13:37:40;12.80;53.10
69679;DHT22;56915;52.046;4.854;2023-04-24T13:40:08;12.60;50.40
69679;DHT22;56915;52.046;4.854;2023-04-24T13:42:35;12.20;52.50
69679;DHT22;56915;52.046;4.854;2023-04-24T13:45:01;12.10;53.70
69679;DHT22;56915;52.046;4.854;2023-04-24T13:48:05;12.20;55.70
69679;DHT22;56915;52.046;4.854;2023-04-24T13:50:32;12.70;53.00
69679;DHT22;56915;52.046;4.854;2023-04-24T13:52:59;12.70;51.60
69679;DHT22;56915;52.046;4.854;2023-04-24T13:55:30;12.60;52.20
69679;DHT22;56915;52.046;4.854;2023-04-24T13:57:57;12.30;52.10
69679;DHT22;56915;52.046;4.854;2023-04-24T14:00:24;12.10;53.00
69679;DHT22;56915;52.046;4.854;2023-04-24T14:02:51;12.30;53.40
69679;DHT22;56915;52.046;4.854;2023-04-24T14:05:19;12.50;53.90
69679;DHT22;56915;52.046;4.854;2023-04-24T14:07:45;12.70;50.10
69679;DHT22;56915;52.046;4.854;2023-04-24T14:10:38;12.60;50.10
69679;DHT22;56915;52.046;4.854;2023-04-24T14:13:05;12.50;51.80
69679;DHT22;56915;52.046;4.854;2023-04-24T14:15:32;12.50;50.70
69679;DHT22;56915;52.046;4.854;2023-04-24T14:17:59;12.60;52.40
69679;DHT22;56915;52.046;4.854;2023-04-24T14:20:27;12.60;51.50
69679;DHT22;56915;52.046;4.854;2023-04-24T14:22:53;12.40;52.10
69679;DHT22;56915;52.046;4.854;2023-04-24T14:25:20;12.10;52.50
69679;DHT22;56915;52.046;4.854;2023-04-24T14:27:49;11.50;54.80
69679;DHT22;56915;52.046;4.854;2023-04-24T14:30:15;10.50;60.30
69679;DHT22;56915;52.046;4.854;2023-04-24T14:32:46;9.60;69.10
69679;DHT22;56915;52.046;4.854;2023-04-24T14:35:13;9.10;81.40
69679;DHT22;56915;52.046;4.854;2023-04-24T14:37:41;8.90;90.30
69679;DHT22;56915;52.046;4.854;2023-04-24T14:40:09;9.10;93.70
69679;DHT22;56915;52.046;4.854;2023-04-24T14:42:56;9.80;95.10
69679;DHT22;56915;52.046;4.854;2023-04-24T14:45:25;10.60;89.50
69679;DHT22;56915;52.046;4.854;2023-04-24T14:47:52;11.30;87.70
69679;DHT22;56915;52.046;4.854;2023-04-24T14:50:32;11.60;75.90
69679;DHT22;56915;52.046;4.854;2023-04-24T14:52:59;11.60;76.20
69679;DHT22;56915;52.046;4.854;2023-04-24T14:55:28;11.30;73.10
69679;DHT22;56915;52.046;4.854;2023-04-24T14:57:55;11.10;76.40
69679;DHT22;56915;52.046;4.854;2023-04-24T15:00:22;11.00;81.00
69679;DHT22;56915;52.046;4.854;2023-04-24T15:02:50;10.90;74.10
69679;DHT22;56915;52.046;4.854;2023-04-24T15:05:18;10.90;77.10
69679;DHT22;56915;52.046;4.854;2023-04-24T15:07:45;11.10;76.00
69679;DHT22;56915;52.046;4.854;2023-04-24T15:10:12;11.50;78.80
69679;DHT22;56915;52.046;4.854;2023-04-24T15:12:39;12.50;69.60
69679;DHT22;56915;52.046;4.854;2023-04-24T15:15:06;13.20;62.50
69679;DHT22;56915;52.046;4.854;2023-04-24T15:17:33;13.70;61.00
69679;DHT22;56915;52.046;4.854;2023-04-24T15:20:00;13.90;57.70
69679;DHT22;56915;52.046;4.854;2023-04-24T15:22:27;13.10;55.00
69679;DHT22;56915;52.046;4.854;2023-04-24T15:24:54;12.10;57.20
69679;DHT22;56915;52.046;4.854;2023-04-24T15:27:22;11.50;59.60
69679;DHT22;56915;52.046;4.854;2023-04-24T15:29:49;11.40;61.10
69679;DHT22;56915;52.046;4.854;2023-04-24T15:32:16;11.60;62.90
69679;DHT22;56915;52.046;4.854;2023-04-24T15:34:43;12.10;62.30
69679;DHT22;56915;52.046;4.854;2023-04-24T15:37:20;13.10;59.60
69679;DHT22;56915;52.046;4.854;2023-04-24T15:39:47;13.60;53.90
69679;DHT22;56915;52.046;4.854;2023-04-24T15:42:14;13.80;54.90
69679;DHT22;56915;52.046;4.854;2023-04-24T15:44:40;15.00;50.20
69679;DHT22;56915;52.046;4.854;2023-04-24T15:47:08;15.00;47.20
69679;DHT22;56915;52.046;4.854;2023-04-24T15:49:35;14.80;47.70
69679;DHT22;56915;52.046;4.854;2023-04-24T15:52:02;15.10;45.80
69679;DHT22;56915;52.046;4.854;2023-04-24T15:54:29;15.90;45.00
69679;DHT22;56915;52.046;4.854;2023-04-24T15:56:56;16.50;42.40
69679;DHT22;56915;52.046;4.854;2023-04-24T15:59:23;17.60;43.40
69679;DHT22;56915;52.046;4.854;2023-04-24T16:01:51;18.60;37.80
69679;DHT22;56915;52.046;4.854;2023-04-24T16:04:17;18.70;35.90
69679;DHT22;56915;52.046;4.854;2023-04-24T16:06:45;19.20;36.60
69679;DHT22;56915;52.046;4.854;2023-04-24T16:09:12;19.50;33.00
69679;DHT22;56915;52.046;4.854;2023-04-24T16:11:40;17.80;34.10
69679;DHT22;56915;52.046;4.854;2023-04-24T16:14:08;15.90;36.40
69679;DHT22;56915;52.046;4.854;2023-04-24T16:16:36;14.40;40.20
69679;DHT22;56915;52.046;4.854;2023-04-24T16:19:03;15.00;41.50
69679;DHT22;56915;52.046;4.854;2023-04-24T16:21:29;16.40;40.10
69679;DHT22;56915;52.046;4.854;2023-04-24T16:23:57;16.20;36.70
69679;DHT22;56915;52.046;4.854;2023-04-24T16:26:24;15.30;37.60
69679;DHT22;56915;52.046;4.854;2023-04-24T16:28:51;14.20;39.10
69679;DHT22;56915;52.046;4.854;2023-04-24T16:34:28;12.70;44.50
69679;DHT22;56915;52.046;4.854;2023-04-24T16:36:55;12.30;45.80
69679;DHT22;56915;52.046;4.854;2023-04-24T16:39:22;11.80;46.70
69679;DHT22;56915;52.046;4.854;2023-04-24T16:41:49;11.50;48.20
69679;DHT22;56915;52.046;4.854;2023-04-24T16:44:15;11.40;49.40
69679;DHT22;56915;52.046;4.854;2023-04-24T16:46:42;11.60;49.90
69679;DHT22;56915;52.046;4.854;2023-04-24T16:49:09;11.60;50.10
69679;DHT22;56915;52.046;4.854;2023-04-24T16:51:36;11.40;50.50
69679;DHT22;56915;52.046;4.854;2023-04-24T16:54:03;11.20;51.70
69679;DHT22;56915;52.046;4.854;2023-04-24T16:56:30;10.90;52.50
69679;DHT22;56915;52.046;4.854;2023-04-24T16:58:57;10.60;54.00
69679;DHT22;56915;52.046;4.854;2023-04-24T17:01:24;10.50;55.70